Terminal Aerodrome Forecast
Issued by NWS

Home | Current Version | Previous Version | Text Only | Print | Product List | Glossary On
Versions: 1 2 3 4 5 6 7 8 9 10 11 12 13
000
FTUS43 KOAX 221700
TAFCDR
TAF
KCDR 221732Z 2218/2318 18016G22KT P6SM -SHRA OVC100
     FM222200 19014G24KT P6SM VCTS SCT050CB OVC090
     FM230400 18022G34KT P6SM VCSH SCT030 BKN050
     FM230900 22007KT P6SM SCT050 BKN150=

USA.gov is the U.S. government's official web portal to all federal, state and local government web resources and services.